createdAt,value
2022-12-18T00:02:18.481Z,88.91
2022-12-18T00:04:49.855Z,89.20
2022-12-18T00:07:21.115Z,88.64
2022-12-18T00:09:52.375Z,88.63
2022-12-18T00:12:23.708Z,88.79
2022-12-18T00:14:55.060Z,89.19
2022-12-18T00:17:26.361Z,89.10
2022-12-18T00:19:57.616Z,88.91
2022-12-18T00:22:28.908Z,88.58
2022-12-18T00:25:00.250Z,88.59
2022-12-18T00:27:31.570Z,88.62
2022-12-18T00:30:03.381Z,88.80
2022-12-18T00:32:34.646Z,88.95
2022-12-18T00:35:07.184Z,89.04
2022-12-18T00:37:38.520Z,89.19
2022-12-18T00:40:10.502Z,88.58
2022-12-18T00:42:57.025Z,89.15
2022-12-18T00:45:31.495Z,88.95
2022-12-18T00:48:03.160Z,88.94
2022-12-18T00:50:34.700Z,89.05
2022-12-18T00:53:06.234Z,88.95
2022-12-18T00:55:41.982Z,88.32
2022-12-18T00:58:15.780Z,88.91
2022-12-18T01:00:47.098Z,88.85
2022-12-18T01:03:18.711Z,88.88
2022-12-18T01:05:50.088Z,88.91
2022-12-18T01:08:21.356Z,88.07
2022-12-18T01:10:52.604Z,88.25
2022-12-18T01:13:23.859Z,88.47
2022-12-18T01:15:55.111Z,88.83
2022-12-18T01:18:26.615Z,88.62
2022-12-18T01:20:57.942Z,88.70
2022-12-18T01:23:29.224Z,88.44
2022-12-18T01:26:06.347Z,88.58
2022-12-18T01:28:38.320Z,88.81
2022-12-18T01:31:13.101Z,88.66
2022-12-18T01:33:45.210Z,88.13
2022-12-18T01:36:22.955Z,88.34
2022-12-18T01:38:54.500Z,88.79
2022-12-18T01:41:48.859Z,88.67
2022-12-18T01:44:48.554Z,88.72
2022-12-18T01:47:28.612Z,88.15
2022-12-18T01:50:04.049Z,88.07
2022-12-18T01:52:35.696Z,88.29
2022-12-18T01:55:08.594Z,88.43
2022-12-18T01:57:41.264Z,88.55
2022-12-18T02:00:16.272Z,88.67
2022-12-18T02:02:48.104Z,88.10
2022-12-18T02:05:58.407Z,88.35
2022-12-18T02:08:35.510Z,87.79
2022-12-18T02:11:25.021Z,87.88
2022-12-18T02:14:12.296Z,87.81
2022-12-18T02:16:53.654Z,88.21
2022-12-18T02:19:52.671Z,87.92
2022-12-18T02:22:42.831Z,88.54
2022-12-18T02:25:31.495Z,88.58
2022-12-18T02:28:07.299Z,88.06
2022-12-18T02:30:40.735Z,88.16
2022-12-18T02:33:14.284Z,88.38
2022-12-18T02:35:46.747Z,88.13
2022-12-18T02:38:18.658Z,88.31
2022-12-18T02:40:52.068Z,87.74
2022-12-18T02:43:23.381Z,88.05
2022-12-18T02:45:59.863Z,88.35
2022-12-18T02:48:35.990Z,87.84
2022-12-18T02:51:21.307Z,88.32
2022-12-18T02:54:14.602Z,88.02
2022-12-18T02:56:52.598Z,88.13
2022-12-18T02:59:37.857Z,88.32
2022-12-18T03:02:28.919Z,88.34
2022-12-18T03:05:28.948Z,88.29
2022-12-18T03:08:06.848Z,88.16
2022-12-18T03:10:56.602Z,88.06
2022-12-18T03:13:52.678Z,87.88
2022-12-18T03:16:29.177Z,87.63
2022-12-18T03:19:11.798Z,87.90
2022-12-18T03:21:50.401Z,87.65
2022-12-18T03:24:23.764Z,87.91
2022-12-18T03:27:01.552Z,87.82
2022-12-18T03:29:48.597Z,87.90
2022-12-18T03:32:28.004Z,87.58
2022-12-18T03:35:03.661Z,87.67
2022-12-18T03:37:35.352Z,87.89
2022-12-18T03:40:07.364Z,87.53
2022-12-18T03:42:49.655Z,87.41
2022-12-18T03:45:28.190Z,87.75
2022-12-18T03:48:12.105Z,87.72
2022-12-18T03:50:55.604Z,87.55
2022-12-18T03:53:50.028Z,87.50
2022-12-18T03:56:23.595Z,87.49
2022-12-18T03:58:57.475Z,87.50
2022-12-18T04:01:36.926Z,88.07
2022-12-18T04:04:11.219Z,87.30
2022-12-18T04:06:44.527Z,87.72
2022-12-18T04:09:15.931Z,87.86
2022-12-18T04:11:48.086Z,88.01
2022-12-18T04:14:19.349Z,87.86
2022-12-18T04:16:50.602Z,87.63
2022-12-18T04:19:21.853Z,87.71
2022-12-18T04:21:53.128Z,87.45
2022-12-18T04:24:24.460Z,87.42
2022-12-18T04:26:55.735Z,87.63
2022-12-18T04:29:26.988Z,87.93
2022-12-18T04:31:58.249Z,87.94
2022-12-18T04:34:29.550Z,87.59
2022-12-18T04:37:00.866Z,87.52
2022-12-18T04:39:32.216Z,87.88
2022-12-18T04:42:03.599Z,87.38
2022-12-18T04:44:35.188Z,87.45
2022-12-18T04:47:06.460Z,87.37
2022-12-18T04:49:37.732Z,87.59
2022-12-18T04:52:09.109Z,88.12
2022-12-18T04:54:40.428Z,87.81
2022-12-18T04:57:11.703Z,87.36
2022-12-18T04:59:42.946Z,87.43
2022-12-18T05:02:14.317Z,88.03
2022-12-18T05:04:45.788Z,87.41
2022-12-18T05:07:17.034Z,87.57
2022-12-18T05:09:48.271Z,87.54
2022-12-18T05:12:19.529Z,87.64
2022-12-18T05:14:50.817Z,87.61
2022-12-18T05:17:22.115Z,87.55
2022-12-18T05:19:53.450Z,87.99
2022-12-18T05:22:25.780Z,87.79
2022-12-18T05:24:57.027Z,87.70
2022-12-18T05:27:28.293Z,88.18
2022-12-18T05:29:59.537Z,88.23
2022-12-18T05:32:30.835Z,87.99
2022-12-18T05:35:02.224Z,88.04
2022-12-18T05:37:36.887Z,87.81
2022-12-18T05:40:11.978Z,87.33
2022-12-18T05:42:43.235Z,87.95
2022-12-18T05:45:14.486Z,87.12
2022-12-18T05:47:45.753Z,87.03
2022-12-18T05:50:17.036Z,87.65
2022-12-18T05:52:48.324Z,87.12
2022-12-18T05:55:19.571Z,87.51
2022-12-18T05:57:50.821Z,87.58
2022-12-18T06:00:22.149Z,88.19
2022-12-18T06:02:53.666Z,88.00
2022-12-18T06:05:25.047Z,88.28
2022-12-18T06:07:56.415Z,87.23
2022-12-18T06:10:27.780Z,87.80
2022-12-18T06:13:00.422Z,87.99
2022-12-18T06:15:31.723Z,87.47
2022-12-18T06:18:03.029Z,87.75
2022-12-18T06:20:34.567Z,87.78
2022-12-18T06:23:06.532Z,87.85
2022-12-18T06:25:39.544Z,87.56
2022-12-18T06:28:10.953Z,87.94
2022-12-18T06:30:44.934Z,87.89
2022-12-18T06:33:16.868Z,88.02
2022-12-18T06:35:48.128Z,87.62
2022-12-18T06:38:19.392Z,87.61
2022-12-18T06:40:50.647Z,88.12
2022-12-18T06:43:21.930Z,87.52
2022-12-18T06:46:00.818Z,87.86
2022-12-18T06:48:33.016Z,87.74
2022-12-18T06:51:04.866Z,87.50
2022-12-18T06:53:36.120Z,87.52
2022-12-18T06:56:10.596Z,87.88
2022-12-18T06:58:42.210Z,88.03
2022-12-18T07:01:14.307Z,87.90
2022-12-18T07:03:46.203Z,88.30
2022-12-18T07:06:19.954Z,87.69
2022-12-18T07:08:52.403Z,88.11
2022-12-18T07:11:24.056Z,87.95
2022-12-18T07:13:55.443Z,87.81
2022-12-18T07:16:27.342Z,87.73
2022-12-18T07:18:58.616Z,87.71
2022-12-18T07:21:29.865Z,87.41
2022-12-18T07:24:01.135Z,88.22
2022-12-18T07:26:32.531Z,88.10
2022-12-18T07:29:03.796Z,87.60
2022-12-18T07:31:35.101Z,87.95
2022-12-18T07:34:06.380Z,88.04
2022-12-18T07:36:37.623Z,88.09
2022-12-18T07:39:09.016Z,87.65
2022-12-18T07:41:46.771Z,87.69
2022-12-18T07:44:18.480Z,88.61
2022-12-18T07:46:49.723Z,87.95
2022-12-18T07:49:20.979Z,88.30
2022-12-18T07:51:54.332Z,87.64
2022-12-18T07:54:25.756Z,88.54
2022-12-18T07:56:57.023Z,88.26
2022-12-18T07:59:28.272Z,88.79
2022-12-18T08:01:59.787Z,88.03
2022-12-18T08:04:31.341Z,88.36
2022-12-18T08:07:02.681Z,87.93
2022-12-18T08:09:33.944Z,88.34
2022-12-18T08:12:05.644Z,88.08
2022-12-18T08:14:36.952Z,88.32
2022-12-18T08:17:08.326Z,88.10
2022-12-18T08:19:39.613Z,88.55
2022-12-18T08:22:10.877Z,88.34
2022-12-18T08:24:42.281Z,89.03
2022-12-18T08:27:29.031Z,88.62
2022-12-18T08:30:01.150Z,88.12
2022-12-18T08:32:33.938Z,88.60
2022-12-18T08:35:05.740Z,88.41
2022-12-18T08:37:37.035Z,89.06
2022-12-18T08:40:09.081Z,88.50
2022-12-18T08:42:59.028Z,88.83
2022-12-18T08:45:30.444Z,88.60
2022-12-18T08:48:01.785Z,88.89
2022-12-18T08:50:33.201Z,88.52
2022-12-18T08:53:04.752Z,88.75
2022-12-18T08:55:36.205Z,88.94
2022-12-18T08:58:07.452Z,88.56
2022-12-18T09:00:38.708Z,89.11
2022-12-18T09:03:17.979Z,89.15
2022-12-18T09:05:49.623Z,89.36
2022-12-18T09:08:20.901Z,89.52
2022-12-18T09:10:52.524Z,89.59
2022-12-18T09:13:23.913Z,88.71
2022-12-18T09:15:56.173Z,89.16
2022-12-18T09:18:27.460Z,89.40
2022-12-18T09:20:58.794Z,89.15
2022-12-18T09:23:30.095Z,89.33
2022-12-18T09:26:01.397Z,89.79
2022-12-18T09:28:32.657Z,89.15
2022-12-18T09:31:07.528Z,89.34
2022-12-18T09:33:39.012Z,89.26
2022-12-18T09:36:13.456Z,89.75
2022-12-18T09:38:45.245Z,89.20
2022-12-18T09:41:41.807Z,89.60
2022-12-18T09:44:16.736Z,89.30
2022-12-18T09:46:54.761Z,89.58
2022-12-18T09:49:30.053Z,89.50
2022-12-18T09:52:09.352Z,89.50
2022-12-18T09:54:42.388Z,89.45
2022-12-18T09:57:21.359Z,89.61
2022-12-18T10:00:19.521Z,89.56
2022-12-18T10:02:53.943Z,89.62
2022-12-18T10:05:43.506Z,89.60
2022-12-18T10:08:22.710Z,89.36
2022-12-18T10:10:58.892Z,90.09
2022-12-18T10:13:40.689Z,89.55
2022-12-18T10:16:36.394Z,89.64
2022-12-18T10:19:16.664Z,89.70
2022-12-18T10:22:12.000Z,89.83
2022-12-18T10:24:53.506Z,90.17
2022-12-18T10:27:27.362Z,89.74
2022-12-18T10:29:59.049Z,89.89
2022-12-18T10:32:31.732Z,89.63
2022-12-18T10:35:02.996Z,89.73
2022-12-18T10:37:34.266Z,90.32
2022-12-18T10:40:21.919Z,89.64
2022-12-18T10:43:07.157Z,89.70
2022-12-18T10:45:38.555Z,90.03
2022-12-18T10:48:22.156Z,89.68
2022-12-18T10:51:10.739Z,90.13
2022-12-18T10:53:55.227Z,90.21
2022-12-18T10:56:28.662Z,90.20
2022-12-18T10:59:08.895Z,89.81
2022-12-18T11:01:54.814Z,89.86
2022-12-18T11:04:32.379Z,89.75
2022-12-18T11:07:06.179Z,89.66
2022-12-18T11:09:40.548Z,89.41
2022-12-18T11:12:18.743Z,90.04
2022-12-18T11:14:52.801Z,90.09
2022-12-18T11:17:35.837Z,90.17
2022-12-18T11:20:30.833Z,89.35
2022-12-18T11:23:12.316Z,89.81
2022-12-18T11:25:52.778Z,89.60
2022-12-18T11:28:41.964Z,90.71
2022-12-18T11:31:20.977Z,89.68
2022-12-18T11:34:27.545Z,90.00
2022-12-18T11:36:50.489Z,90.72
2022-12-18T11:39:43.747Z,90.92
2022-12-18T11:42:25.355Z,90.11
2022-12-18T11:45:09.097Z,90.34
2022-12-18T11:48:02.487Z,90.87
2022-12-18T11:50:56.551Z,90.81
2022-12-18T11:53:31.203Z,90.03
2022-12-18T11:56:26.914Z,90.28
2022-12-18T11:59:33.324Z,89.93
2022-12-18T12:02:27.147Z,90.32
2022-12-18T12:05:30.825Z,89.65
2022-12-18T12:08:02.036Z,90.37
2022-12-18T12:10:38.951Z,90.53
2022-12-18T12:13:37.558Z,89.71
2022-12-18T12:16:18.421Z,91.08
2022-12-18T12:18:53.335Z,89.98
2022-12-18T12:21:34.184Z,90.71
2022-12-18T12:24:23.546Z,89.99
2022-12-18T12:27:08.822Z,90.17
2022-12-18T12:30:10.290Z,90.79
2022-12-18T12:32:46.770Z,90.94
2022-12-18T12:35:49.247Z,90.59
2022-12-18T12:38:29.497Z,90.34
2022-12-18T12:41:06.173Z,90.27
2022-12-18T12:43:50.260Z,90.69
2022-12-18T12:46:23.878Z,91.25
2022-12-18T12:49:01.817Z,90.49
2022-12-18T12:51:36.387Z,89.91
2022-12-18T12:54:20.395Z,90.32
2022-12-18T12:57:01.412Z,90.00
2022-12-18T12:59:46.861Z,90.59
2022-12-18T13:02:29.375Z,89.51
2022-12-18T13:05:26.826Z,89.53
2022-12-18T13:07:58.543Z,89.99
2022-12-18T13:10:34.919Z,90.41
2022-12-18T13:13:13.120Z,89.90
2022-12-18T13:16:06.195Z,90.01
2022-12-18T13:18:39.057Z,89.83
2022-12-18T13:21:24.860Z,90.06
2022-12-18T13:23:58.476Z,89.55
2022-12-18T13:26:31.862Z,89.83
2022-12-18T13:29:05.077Z,90.14
2022-12-18T13:31:42.459Z,89.25
2022-12-18T13:34:27.914Z,90.02
2022-12-18T13:37:40.638Z,89.90
2022-12-18T13:40:39.599Z,89.76
2022-12-18T13:43:19.785Z,89.49
2022-12-18T13:46:03.472Z,89.44
2022-12-18T13:48:38.893Z,88.76
2022-12-18T13:51:17.396Z,89.76
2022-12-18T13:53:52.224Z,88.74
2022-12-18T13:56:26.748Z,89.28
2022-12-18T13:59:23.299Z,88.70
2022-12-18T14:01:59.536Z,89.59
2022-12-18T14:04:35.913Z,88.66
2022-12-18T14:07:21.782Z,88.84
2022-12-18T14:10:06.422Z,89.32
2022-12-18T14:13:00.976Z,88.72
2022-12-18T14:15:42.083Z,88.79
2022-12-18T14:18:39.929Z,89.08
2022-12-18T14:21:24.906Z,88.77
2022-12-18T14:24:18.269Z,88.62
2022-12-18T14:26:51.861Z,89.52
2022-12-18T14:29:30.233Z,89.73
2022-12-18T14:32:05.703Z,88.96
2022-12-18T14:34:37.089Z,89.01
2022-12-18T14:37:12.743Z,89.10
2022-12-18T14:39:58.770Z,89.13
2022-12-18T14:42:30.410Z,89.03
2022-12-18T14:45:37.417Z,88.74
2022-12-18T14:48:12.672Z,88.84
2022-12-18T14:50:54.616Z,88.70
2022-12-18T14:53:52.412Z,88.81
2022-12-18T14:56:29.001Z,89.11
2022-12-18T14:59:13.284Z,89.41
2022-12-18T15:01:58.771Z,89.42
2022-12-18T15:04:36.668Z,88.98
2022-12-18T15:07:18.575Z,89.25
2022-12-18T15:10:08.731Z,89.16
2022-12-18T15:12:49.275Z,89.17
2022-12-18T15:15:45.669Z,88.91
2022-12-18T15:18:20.919Z,89.03
2022-12-18T15:21:01.016Z,89.04
2022-12-18T15:23:37.546Z,88.88
2022-12-18T15:26:12.584Z,88.89
2022-12-18T15:28:59.429Z,88.97
2022-12-18T15:31:38.731Z,88.81
2022-12-18T15:34:13.734Z,89.14
2022-12-18T15:36:45.533Z,89.14
2022-12-18T15:39:16.803Z,89.29
2022-12-18T15:42:06.646Z,88.84
2022-12-18T15:44:38.278Z,89.75
2022-12-18T15:47:12.621Z,89.46
2022-12-18T15:49:43.942Z,89.27
2022-12-18T15:52:26.620Z,89.16
2022-12-18T15:55:16.467Z,89.27
2022-12-18T15:57:47.842Z,89.88
2022-12-18T16:00:19.570Z,89.50
2022-12-18T16:02:51.002Z,89.39
2022-12-18T16:05:23.851Z,89.75
2022-12-18T16:07:55.227Z,89.98
2022-12-18T16:10:27.359Z,89.50
2022-12-18T16:12:58.718Z,89.73
2022-12-18T16:15:30.077Z,89.88
2022-12-18T16:18:01.346Z,89.50
2022-12-18T16:20:32.596Z,89.90
2022-12-18T16:23:03.857Z,89.64
2022-12-18T16:25:35.196Z,89.64
2022-12-18T16:28:06.455Z,89.68
2022-12-18T16:30:38.625Z,89.67
2022-12-18T16:33:11.585Z,89.99
2022-12-18T16:35:42.948Z,89.79
2022-12-18T16:38:14.417Z,89.85
2022-12-18T16:41:04.239Z,90.11
2022-12-18T16:43:35.699Z,90.32
2022-12-18T16:46:07.136Z,90.35
2022-12-18T16:48:38.974Z,90.51
2022-12-18T16:51:10.309Z,90.31
2022-12-18T16:53:41.951Z,89.97
2022-12-18T16:56:13.441Z,90.24
2022-12-18T16:58:44.689Z,90.22
2022-12-18T17:01:16.768Z,90.23
2022-12-18T17:03:56.106Z,90.27
2022-12-18T17:06:29.171Z,90.02
2022-12-18T17:09:04.773Z,90.71
2022-12-18T17:11:36.407Z,90.27
2022-12-18T17:14:26.971Z,90.06
2022-12-18T17:17:20.213Z,90.08
2022-12-18T17:19:52.452Z,90.63
2022-12-18T17:22:23.795Z,90.38
2022-12-18T17:24:55.081Z,90.44
2022-12-18T17:27:26.332Z,90.31
2022-12-18T17:29:57.641Z,90.26
2022-12-18T17:32:29.000Z,90.36
2022-12-18T17:35:05.396Z,90.66
2022-12-18T17:37:38.322Z,90.60
2022-12-18T17:40:10.108Z,90.71
2022-12-18T17:42:41.363Z,90.01
2022-12-18T17:45:12.732Z,90.73
2022-12-18T17:47:44.028Z,90.37
2022-12-18T17:50:15.476Z,90.07
2022-12-18T17:52:46.770Z,90.37
2022-12-18T17:55:18.315Z,90.18
2022-12-18T17:57:49.791Z,90.74
2022-12-18T18:00:21.525Z,90.13
2022-12-18T18:02:53.220Z,90.46
2022-12-18T18:05:24.618Z,90.42
2022-12-18T18:07:57.088Z,90.54
2022-12-18T18:10:28.467Z,89.93
2022-12-18T18:13:18.666Z,90.47
2022-12-18T18:15:59.086Z,90.33
2022-12-18T18:18:31.409Z,90.35
2022-12-18T18:21:07.119Z,90.42
2022-12-18T18:23:39.204Z,90.75
2022-12-18T18:26:12.245Z,89.95
2022-12-18T18:28:43.536Z,90.14
2022-12-18T18:31:14.896Z,90.08
2022-12-18T18:33:46.187Z,90.40
2022-12-18T18:36:17.576Z,90.31
2022-12-18T18:38:49.335Z,90.37
2022-12-18T18:41:22.306Z,89.57
2022-12-18T18:43:58.150Z,90.55
2022-12-18T18:46:29.431Z,89.88
2022-12-18T18:49:00.924Z,90.30
2022-12-18T18:51:35.137Z,89.91
2022-12-18T18:54:06.919Z,90.51
2022-12-18T18:57:03.885Z,90.12
2022-12-18T18:59:31.254Z,89.73
2022-12-18T19:02:04.769Z,90.66
2022-12-18T19:04:36.536Z,90.07
2022-12-18T19:07:26.157Z,90.40
2022-12-18T19:10:04.733Z,89.98
2022-12-18T19:12:55.397Z,90.24
2022-12-18T19:15:26.652Z,89.90
2022-12-18T19:17:58.084Z,90.31
2022-12-18T19:20:29.342Z,90.25
2022-12-18T19:23:00.706Z,90.60
2022-12-18T19:25:38.444Z,89.59
2022-12-18T19:28:21.466Z,90.47
2022-12-18T19:30:59.314Z,90.53
2022-12-18T19:33:43.116Z,90.66
2022-12-18T19:36:22.502Z,90.79
2022-12-18T19:38:55.825Z,90.45
2022-12-18T19:41:31.392Z,90.51
2022-12-18T19:44:07.647Z,90.29
2022-12-18T19:46:42.013Z,90.09
2022-12-18T19:49:18.191Z,90.44
2022-12-18T19:51:50.270Z,90.57
2022-12-18T19:54:21.936Z,90.57
2022-12-18T19:56:53.360Z,90.46
2022-12-18T19:59:24.841Z,90.56
2022-12-18T20:01:56.363Z,89.83
2022-12-18T20:04:28.027Z,90.11
2022-12-18T20:06:59.434Z,89.73
2022-12-18T20:09:31.128Z,89.99
2022-12-18T20:12:03.585Z,90.47
2022-12-18T20:14:34.992Z,90.33
2022-12-18T20:17:06.399Z,90.64
2022-12-18T20:19:37.847Z,89.87
2022-12-18T20:22:09.454Z,90.32
2022-12-18T20:24:40.730Z,90.03
2022-12-18T20:27:16.106Z,90.07
2022-12-18T20:29:49.724Z,90.38
2022-12-18T20:32:21.019Z,90.33
2022-12-18T20:34:52.507Z,90.61
2022-12-18T20:37:24.432Z,89.96
2022-12-18T20:39:56.264Z,90.84
2022-12-18T20:42:27.776Z,89.88
2022-12-18T20:44:59.104Z,90.78
2022-12-18T20:47:30.406Z,90.83
2022-12-18T20:50:01.834Z,90.44
2022-12-18T20:52:33.547Z,90.98
2022-12-18T20:55:06.536Z,90.65
2022-12-18T20:57:38.886Z,90.75
2022-12-18T21:00:11.152Z,90.59
2022-12-18T21:02:43.837Z,90.90
2022-12-18T21:05:15.188Z,90.52
2022-12-18T21:07:46.727Z,90.67
2022-12-18T21:10:18.076Z,90.18
2022-12-18T21:12:50.883Z,90.61
2022-12-18T21:15:31.538Z,90.38
2022-12-18T21:18:02.832Z,90.71
2022-12-18T21:20:34.330Z,90.63
2022-12-18T21:23:15.775Z,89.88
2022-12-18T21:25:55.927Z,90.26
2022-12-18T21:28:27.485Z,90.22
2022-12-18T21:30:58.817Z,90.36
2022-12-18T21:33:30.181Z,90.63
2022-12-18T21:36:08.059Z,90.71
2022-12-18T21:38:39.440Z,90.95
2022-12-18T21:41:30.279Z,89.76
2022-12-18T21:44:08.018Z,90.71
2022-12-18T21:46:48.848Z,90.74
2022-12-18T21:49:23.308Z,90.99
2022-12-18T21:51:56.848Z,90.79
2022-12-18T21:54:29.020Z,90.81
2022-12-18T21:57:02.358Z,90.65
2022-12-18T21:59:39.197Z,89.95
2022-12-18T22:02:13.635Z,90.92
2022-12-18T22:04:46.811Z,90.51
2022-12-18T22:07:18.226Z,89.85
2022-12-18T22:09:49.521Z,90.82
2022-12-18T22:12:35.308Z,90.69
2022-12-18T22:15:07.329Z,90.50
2022-12-18T22:17:38.872Z,90.16
2022-12-18T22:20:10.954Z,90.88
2022-12-18T22:22:42.269Z,90.55
2022-12-18T22:25:13.587Z,90.82
2022-12-18T22:28:04.971Z,90.26
2022-12-18T22:30:36.279Z,90.71
2022-12-18T22:33:07.623Z,90.50
2022-12-18T22:35:39.101Z,90.70
2022-12-18T22:38:10.366Z,90.18
2022-12-18T22:40:41.764Z,89.94
2022-12-18T22:43:13.290Z,90.39
2022-12-18T22:45:47.203Z,89.64
2022-12-18T22:48:18.714Z,89.95
2022-12-18T22:50:50.966Z,90.54
2022-12-18T22:53:25.157Z,90.23
2022-12-18T22:56:02.644Z,90.84
2022-12-18T22:58:33.913Z,90.52
2022-12-18T23:01:06.449Z,90.74
2022-12-18T23:03:37.763Z,90.38
2022-12-18T23:06:09.286Z,90.20
2022-12-18T23:08:40.563Z,90.91
2022-12-18T23:11:12.808Z,90.31
2022-12-18T23:13:44.479Z,90.91
2022-12-18T23:16:18.347Z,89.61
2022-12-18T23:18:55.153Z,90.56
2022-12-18T23:21:26.425Z,90.46
2022-12-18T23:23:58.781Z,90.86
2022-12-18T23:26:30.464Z,90.58
2022-12-18T23:29:03.574Z,90.05
2022-12-18T23:31:37.465Z,90.50
2022-12-18T23:34:12.456Z,89.96
2022-12-18T23:36:46.195Z,90.90
2022-12-18T23:39:29.831Z,90.80
2022-12-18T23:42:01.694Z,90.65
2022-12-18T23:44:33.884Z,89.89
2022-12-18T23:47:06.934Z,89.79
2022-12-18T23:49:38.196Z,90.43
2022-12-18T23:52:09.619Z,90.84
2022-12-18T23:54:41.992Z,90.24
2022-12-18T23:57:13.254Z,90.00
2022-12-18T23:59:44.607Z,90.79
